sensor_id;sensor_type;location;lat;lon;timestamp;temperature;humidity
2973;DHT22;1496;51.404;7.232;2022-11-12T00:00:39;9.90;41.20
2973;DHT22;1496;51.404;7.232;2022-11-12T00:03:23;9.80;41.40
2973;DHT22;1496;51.404;7.232;2022-11-12T00:06:07;9.80;42.20
2973;DHT22;1496;51.404;7.232;2022-11-12T00:08:51;9.90;41.40
2973;DHT22;1496;51.404;7.232;2022-11-12T00:11:35;9.90;39.50
2973;DHT22;1496;51.404;7.232;2022-11-12T00:14:20;9.80;40.00
2973;DHT22;1496;51.404;7.232;2022-11-12T00:17:04;9.90;41.60
2973;DHT22;1496;51.404;7.232;2022-11-12T00:19:48;9.90;40.50
2973;DHT22;1496;51.404;7.232;2022-11-12T00:22:33;9.80;39.30
2973;DHT22;1496;51.404;7.232;2022-11-12T00:25:17;9.80;50.10
2973;DHT22;1496;51.404;7.232;2022-11-12T00:28:06;9.80;39.20
2973;DHT22;1496;51.404;7.232;2022-11-12T00:30:50;9.80;39.30
2973;DHT22;1496;51.404;7.232;2022-11-12T00:33:38;9.80;38.20
2973;DHT22;1496;51.404;7.232;2022-11-12T00:36:22;9.80;38.10
2973;DHT22;1496;51.404;7.232;2022-11-12T00:39:06;9.80;38.10
2973;DHT22;1496;51.404;7.232;2022-11-12T00:41:50;9.80;38.30
2973;DHT22;1496;51.404;7.232;2022-11-12T00:44:34;9.70;38.20
2973;DHT22;1496;51.404;7.232;2022-11-12T00:47:19;9.80;38.10
2973;DHT22;1496;51.404;7.232;2022-11-12T00:50:03;9.80;37.60
2973;DHT22;1496;51.404;7.232;2022-11-12T00:52:48;9.80;37.00
2973;DHT22;1496;51.404;7.232;2022-11-12T00:55:34;9.70;36.20
2973;DHT22;1496;51.404;7.232;2022-11-12T00:58:18;9.70;36.40
2973;DHT22;1496;51.404;7.232;2022-11-12T01:01:07;9.80;37.30
2973;DHT22;1496;51.404;7.232;2022-11-12T01:03:52;9.80;36.20
2973;DHT22;1496;51.404;7.232;2022-11-12T01:06:39;9.70;33.60
2973;DHT22;1496;51.404;7.232;2022-11-12T01:09:24;9.60;44.10
2973;DHT22;1496;51.404;7.232;2022-11-12T01:12:08;9.70;40.30
2973;DHT22;1496;51.404;7.232;2022-11-12T01:14:52;9.70;32.80
2973;DHT22;1496;51.404;7.232;2022-11-12T01:17:36;9.70;33.00
2973;DHT22;1496;51.404;7.232;2022-11-12T01:20:21;9.60;34.50
2973;DHT22;1496;51.404;7.232;2022-11-12T01:23:05;9.40;33.30
2973;DHT22;1496;51.404;7.232;2022-11-12T01:25:49;9.40;33.10
2973;DHT22;1496;51.404;7.232;2022-11-12T01:28:34;9.40;33.20
2973;DHT22;1496;51.404;7.232;2022-11-12T01:34:07;9.50;32.60
2973;DHT22;1496;51.404;7.232;2022-11-12T01:36:52;9.50;32.50
2973;DHT22;1496;51.404;7.232;2022-11-12T01:39:36;9.60;32.70
2973;DHT22;1496;51.404;7.232;2022-11-12T01:42:22;9.50;31.80
2973;DHT22;1496;51.404;7.232;2022-11-12T01:45:14;9.50;31.60
2973;DHT22;1496;51.404;7.232;2022-11-12T01:47:59;9.60;32.30
2973;DHT22;1496;51.404;7.232;2022-11-12T01:50:43;9.60;31.80
2973;DHT22;1496;51.404;7.232;2022-11-12T01:53:33;9.60;30.40
2973;DHT22;1496;51.404;7.232;2022-11-12T01:56:21;9.70;30.00
2973;DHT22;1496;51.404;7.232;2022-11-12T01:59:11;9.80;30.10
2973;DHT22;1496;51.404;7.232;2022-11-12T02:01:57;9.80;31.70
2973;DHT22;1496;51.404;7.232;2022-11-12T02:04:42;9.80;31.80
2973;DHT22;1496;51.404;7.232;2022-11-12T02:07:27;9.60;30.20
2973;DHT22;1496;51.404;7.232;2022-11-12T02:10:12;9.50;30.40
2973;DHT22;1496;51.404;7.232;2022-11-12T02:12:57;9.40;31.10
2973;DHT22;1496;51.404;7.232;2022-11-12T02:16:02;9.40;31.20
2973;DHT22;1496;51.404;7.232;2022-11-12T02:18:47;9.40;32.50
2973;DHT22;1496;51.404;7.232;2022-11-12T02:21:32;9.30;32.50
2973;DHT22;1496;51.404;7.232;2022-11-12T02:27:04;9.40;31.50
2973;DHT22;1496;51.404;7.232;2022-11-12T02:29:48;9.40;32.50
2973;DHT22;1496;51.404;7.232;2022-11-12T02:32:33;9.30;32.10
2973;DHT22;1496;51.404;7.232;2022-11-12T02:35:17;9.30;32.80
2973;DHT22;1496;51.404;7.232;2022-11-12T02:38:01;9.30;33.10
2973;DHT22;1496;51.404;7.232;2022-11-12T02:40:46;9.30;34.30
2973;DHT22;1496;51.404;7.232;2022-11-12T02:43:30;9.30;32.60
2973;DHT22;1496;51.404;7.232;2022-11-12T02:46:14;9.30;33.70
2973;DHT22;1496;51.404;7.232;2022-11-12T02:48:59;9.30;33.00
2973;DHT22;1496;51.404;7.232;2022-11-12T02:51:42;9.30;32.70
2973;DHT22;1496;51.404;7.232;2022-11-12T02:54:27;9.30;32.60
2973;DHT22;1496;51.404;7.232;2022-11-12T02:57:11;9.30;32.50
2973;DHT22;1496;51.404;7.232;2022-11-12T02:59:55;9.30;33.80
2973;DHT22;1496;51.404;7.232;2022-11-12T03:02:39;9.20;33.00
2973;DHT22;1496;51.404;7.232;2022-11-12T03:05:29;9.20;42.90
2973;DHT22;1496;51.404;7.232;2022-11-12T03:08:13;9.20;33.00
2973;DHT22;1496;51.404;7.232;2022-11-12T03:10:57;9.20;33.30
2973;DHT22;1496;51.404;7.232;2022-11-12T03:13:42;9.20;34.50
2973;DHT22;1496;51.404;7.232;2022-11-12T03:16:26;9.00;34.60
2973;DHT22;1496;51.404;7.232;2022-11-12T03:19:11;9.10;34.90
2973;DHT22;1496;51.404;7.232;2022-11-12T03:21:55;9.10;34.30
2973;DHT22;1496;51.404;7.232;2022-11-12T03:24:39;9.20;34.10
2973;DHT22;1496;51.404;7.232;2022-11-12T03:27:23;9.30;34.90
2973;DHT22;1496;51.404;7.232;2022-11-12T03:30:07;9.30;33.40
2973;DHT22;1496;51.404;7.232;2022-11-12T03:32:52;9.30;32.60
2973;DHT22;1496;51.404;7.232;2022-11-12T03:35:37;9.30;31.70
2973;DHT22;1496;51.404;7.232;2022-11-12T03:38:21;9.20;30.70
2973;DHT22;1496;51.404;7.232;2022-11-12T03:41:05;9.30;30.70
2973;DHT22;1496;51.404;7.232;2022-11-12T03:43:49;9.20;30.50
2973;DHT22;1496;51.404;7.232;2022-11-12T03:46:33;9.10;31.90
2973;DHT22;1496;51.404;7.232;2022-11-12T03:49:17;9.20;31.50
2973;DHT22;1496;51.404;7.232;2022-11-12T03:52:01;9.10;30.90
2973;DHT22;1496;51.404;7.232;2022-11-12T03:54:45;9.00;32.00
2973;DHT22;1496;51.404;7.232;2022-11-12T03:57:30;8.90;32.00
2973;DHT22;1496;51.404;7.232;2022-11-12T04:00:15;8.80;32.00
2973;DHT22;1496;51.404;7.232;2022-11-12T04:02:59;8.80;33.10
2973;DHT22;1496;51.404;7.232;2022-11-12T04:05:44;8.90;34.60
2973;DHT22;1496;51.404;7.232;2022-11-12T04:08:48;9.00;34.10
2973;DHT22;1496;51.404;7.232;2022-11-12T04:11:33;9.10;34.30
2973;DHT22;1496;51.404;7.232;2022-11-12T04:14:18;9.10;33.30
2973;DHT22;1496;51.404;7.232;2022-11-12T04:17:02;8.90;32.60
2973;DHT22;1496;51.404;7.232;2022-11-12T04:20:07;8.90;31.70
2973;DHT22;1496;51.404;7.232;2022-11-12T04:23:10;8.80;32.30
2973;DHT22;1496;51.404;7.232;2022-11-12T04:25:54;8.70;33.50
2973;DHT22;1496;51.404;7.232;2022-11-12T04:28:57;8.80;32.50
2973;DHT22;1496;51.404;7.232;2022-11-12T04:32:11;8.80;32.70
2973;DHT22;1496;51.404;7.232;2022-11-12T04:34:55;8.80;32.40
2973;DHT22;1496;51.404;7.232;2022-11-12T04:37:39;8.80;31.60
2973;DHT22;1496;51.404;7.232;2022-11-12T04:40:31;8.80;32.20
2973;DHT22;1496;51.404;7.232;2022-11-12T04:43:34;8.90;31.90
2973;DHT22;1496;51.404;7.232;2022-11-12T04:46:37;8.80;32.00
2973;DHT22;1496;51.404;7.232;2022-11-12T04:49:21;8.70;32.10
2973;DHT22;1496;51.404;7.232;2022-11-12T04:52:05;8.80;31.90
2973;DHT22;1496;51.404;7.232;2022-11-12T04:54:51;8.80;30.90
2973;DHT22;1496;51.404;7.232;2022-11-12T04:57:37;8.80;30.30
2973;DHT22;1496;51.404;7.232;2022-11-12T05:00:21;8.90;30.20
2973;DHT22;1496;51.404;7.232;2022-11-12T05:03:05;9.00;30.90
2973;DHT22;1496;51.404;7.232;2022-11-12T05:05:49;8.90;29.00
2973;DHT22;1496;51.404;7.232;2022-11-12T05:08:33;8.80;29.50
2973;DHT22;1496;51.404;7.232;2022-11-12T05:11:17;8.90;30.20
2973;DHT22;1496;51.404;7.232;2022-11-12T05:14:01;9.00;30.90
2973;DHT22;1496;51.404;7.232;2022-11-12T05:16:45;9.00;30.80
2973;DHT22;1496;51.404;7.232;2022-11-12T05:19:30;9.00;30.70
2973;DHT22;1496;51.404;7.232;2022-11-12T05:22:14;9.00;29.80
2973;DHT22;1496;51.404;7.232;2022-11-12T05:24:58;8.90;30.00
2973;DHT22;1496;51.404;7.232;2022-11-12T05:27:43;8.80;30.00
2973;DHT22;1496;51.404;7.232;2022-11-12T05:30:27;8.80;30.20
2973;DHT22;1496;51.404;7.232;2022-11-12T05:33:11;8.80;29.50
2973;DHT22;1496;51.404;7.232;2022-11-12T05:35:56;8.80;29.60
2973;DHT22;1496;51.404;7.232;2022-11-12T05:38:41;8.80;29.10
2973;DHT22;1496;51.404;7.232;2022-11-12T05:41:25;8.80;28.80
2973;DHT22;1496;51.404;7.232;2022-11-12T05:44:09;8.80;29.20
2973;DHT22;1496;51.404;7.232;2022-11-12T05:46:54;8.80;28.50
2973;DHT22;1496;51.404;7.232;2022-11-12T05:49:38;8.60;38.30
2973;DHT22;1496;51.404;7.232;2022-11-12T05:52:22;8.50;29.90
2973;DHT22;1496;51.404;7.232;2022-11-12T05:55:07;8.30;29.40
2973;DHT22;1496;51.404;7.232;2022-11-12T05:57:52;7.90;29.80
2973;DHT22;1496;51.404;7.232;2022-11-12T06:00:36;7.60;33.00
2973;DHT22;1496;51.404;7.232;2022-11-12T06:03:22;7.30;35.10
2973;DHT22;1496;51.404;7.232;2022-11-12T06:06:07;7.10;40.10
2973;DHT22;1496;51.404;7.232;2022-11-12T06:08:52;7.10;41.10
2973;DHT22;1496;51.404;7.232;2022-11-12T06:11:36;6.90;52.60
2973;DHT22;1496;51.404;7.232;2022-11-12T06:14:20;6.80;45.30
2973;DHT22;1496;51.404;7.232;2022-11-12T06:17:04;6.80;49.20
2973;DHT22;1496;51.404;7.232;2022-11-12T06:19:48;6.70;51.10
2973;DHT22;1496;51.404;7.232;2022-11-12T06:22:33;6.70;52.30
2973;DHT22;1496;51.404;7.232;2022-11-12T06:25:17;6.70;55.00
2973;DHT22;1496;51.404;7.232;2022-11-12T06:28:01;6.60;56.30
2973;DHT22;1496;51.404;7.232;2022-11-12T06:30:46;6.60;57.70
2973;DHT22;1496;51.404;7.232;2022-11-12T06:33:30;6.50;58.60
2973;DHT22;1496;51.404;7.232;2022-11-12T06:36:17;6.50;60.30
2973;DHT22;1496;51.404;7.232;2022-11-12T06:39:01;6.50;62.90
2973;DHT22;1496;51.404;7.232;2022-11-12T06:41:46;6.40;65.70
2973;DHT22;1496;51.404;7.232;2022-11-12T06:44:30;6.40;67.50
2973;DHT22;1496;51.404;7.232;2022-11-12T06:47:14;6.40;70.10
2973;DHT22;1496;51.404;7.232;2022-11-12T06:49:58;6.40;68.20
2973;DHT22;1496;51.404;7.232;2022-11-12T06:52:42;6.40;68.70
2973;DHT22;1496;51.404;7.232;2022-11-12T06:55:26;6.50;68.10
2973;DHT22;1496;51.404;7.232;2022-11-12T06:58:11;6.60;67.50
2973;DHT22;1496;51.404;7.232;2022-11-12T07:00:56;6.60;65.70
2973;DHT22;1496;51.404;7.232;2022-11-12T07:03:41;6.70;67.20
2973;DHT22;1496;51.404;7.232;2022-11-12T07:06:25;6.60;67.50
2973;DHT22;1496;51.404;7.232;2022-11-12T07:09:09;6.60;64.90
2973;DHT22;1496;51.404;7.232;2022-11-12T07:11:54;6.70;67.40
2973;DHT22;1496;51.404;7.232;2022-11-12T07:14:39;6.70;64.30
2973;DHT22;1496;51.404;7.232;2022-11-12T07:17:23;6.80;63.80
2973;DHT22;1496;51.404;7.232;2022-11-12T07:20:08;6.80;61.50
2973;DHT22;1496;51.404;7.232;2022-11-12T07:22:53;6.80;61.40
2973;DHT22;1496;51.404;7.232;2022-11-12T07:25:37;6.80;60.70
2973;DHT22;1496;51.404;7.232;2022-11-12T07:28:21;6.80;59.70
2973;DHT22;1496;51.404;7.232;2022-11-12T07:31:07;6.90;62.30
2973;DHT22;1496;51.404;7.232;2022-11-12T07:33:53;6.90;61.90
2973;DHT22;1496;51.404;7.232;2022-11-12T07:36:39;6.90;63.40
2973;DHT22;1496;51.404;7.232;2022-11-12T07:39:23;7.00;62.80
2973;DHT22;1496;51.404;7.232;2022-11-12T07:42:08;7.00;62.10
2973;DHT22;1496;51.404;7.232;2022-11-12T07:44:52;6.90;62.40
2973;DHT22;1496;51.404;7.232;2022-11-12T07:47:36;6.90;62.50
2973;DHT22;1496;51.404;7.232;2022-11-12T07:50:21;6.90;63.40
2973;DHT22;1496;51.404;7.232;2022-11-12T07:53:05;6.90;61.50
2973;DHT22;1496;51.404;7.232;2022-11-12T07:55:57;7.00;61.40
2973;DHT22;1496;51.404;7.232;2022-11-12T07:58:42;7.00;62.00
2973;DHT22;1496;51.404;7.232;2022-11-12T08:01:36;7.20;61.60
2973;DHT22;1496;51.404;7.232;2022-11-12T08:04:20;7.30;60.70
2973;DHT22;1496;51.404;7.232;2022-11-12T08:07:05;7.40;59.50
2973;DHT22;1496;51.404;7.232;2022-11-12T08:09:49;7.50;58.80
2973;DHT22;1496;51.404;7.232;2022-11-12T08:12:33;7.50;58.30
2973;DHT22;1496;51.404;7.232;2022-11-12T08:15:17;7.50;57.90
2973;DHT22;1496;51.404;7.232;2022-11-12T08:18:01;7.50;58.90
2973;DHT22;1496;51.404;7.232;2022-11-12T08:20:45;7.60;58.40
2973;DHT22;1496;51.404;7.232;2022-11-12T08:23:29;7.70;58.00
2973;DHT22;1496;51.404;7.232;2022-11-12T08:26:15;7.90;56.80
2973;DHT22;1496;51.404;7.232;2022-11-12T08:29:00;8.00;57.90
2973;DHT22;1496;51.404;7.232;2022-11-12T08:31:45;8.10;57.00
2973;DHT22;1496;51.404;7.232;2022-11-12T08:34:29;8.20;57.10
2973;DHT22;1496;51.404;7.232;2022-11-12T08:37:13;8.40;56.30
2973;DHT22;1496;51.404;7.232;2022-11-12T08:39:57;8.50;56.30
2973;DHT22;1496;51.404;7.232;2022-11-12T08:42:41;8.60;55.80
2973;DHT22;1496;51.404;7.232;2022-11-12T08:45:26;8.70;57.60
2973;DHT22;1496;51.404;7.232;2022-11-12T08:48:12;8.90;56.40
2973;DHT22;1496;51.404;7.232;2022-11-12T08:51:00;9.10;56.60
2973;DHT22;1496;51.404;7.232;2022-11-12T08:53:45;9.20;69.20
2973;DHT22;1496;51.404;7.232;2022-11-12T08:56:30;9.30;55.50
2973;DHT22;1496;51.404;7.232;2022-11-12T08:59:14;9.50;55.40
2973;DHT22;1496;51.404;7.232;2022-11-12T09:01:59;9.60;56.20
2973;DHT22;1496;51.404;7.232;2022-11-12T09:04:43;9.80;50.70
2973;DHT22;1496;51.404;7.232;2022-11-12T09:07:27;10.00;49.00
2973;DHT22;1496;51.404;7.232;2022-11-12T09:10:11;10.20;49.80
2973;DHT22;1496;51.404;7.232;2022-11-12T09:12:56;10.20;48.60
2973;DHT22;1496;51.404;7.232;2022-11-12T09:15:40;10.30;47.90
2973;DHT22;1496;51.404;7.232;2022-11-12T09:18:25;10.40;44.60
2973;DHT22;1496;51.404;7.232;2022-11-12T09:21:10;10.50;42.40
2973;DHT22;1496;51.404;7.232;2022-11-12T09:23:55;10.60;41.00
2973;DHT22;1496;51.404;7.232;2022-11-12T09:26:39;10.70;37.80
2973;DHT22;1496;51.404;7.232;2022-11-12T09:29:23;10.90;37.50
2973;DHT22;1496;51.404;7.232;2022-11-12T09:32:07;11.00;36.50
2973;DHT22;1496;51.404;7.232;2022-11-12T09:34:51;11.10;35.30
2973;DHT22;1496;51.404;7.232;2022-11-12T09:37:36;11.20;35.00
2973;DHT22;1496;51.404;7.232;2022-11-12T09:40:22;11.10;33.40
2973;DHT22;1496;51.404;7.232;2022-11-12T09:43:16;11.20;32.20
2973;DHT22;1496;51.404;7.232;2022-11-12T09:46:08;11.30;30.00
2973;DHT22;1496;51.404;7.232;2022-11-12T09:49:13;11.50;29.60
2973;DHT22;1496;51.404;7.232;2022-11-12T09:52:02;11.70;27.60
2973;DHT22;1496;51.404;7.232;2022-11-12T09:54:54;11.80;27.40
2973;DHT22;1496;51.404;7.232;2022-11-12T09:57:41;12.00;27.90
2973;DHT22;1496;51.404;7.232;2022-11-12T10:00:26;12.10;28.00
2973;DHT22;1496;51.404;7.232;2022-11-12T10:03:32;12.20;28.10
2973;DHT22;1496;51.404;7.232;2022-11-12T10:06:21;12.20;27.80
2973;DHT22;1496;51.404;7.232;2022-11-12T10:09:15;12.20;27.50
2973;DHT22;1496;51.404;7.232;2022-11-12T10:12:18;12.30;27.00
2973;DHT22;1496;51.404;7.232;2022-11-12T10:24:55;12.60;20.80
2973;DHT22;1496;51.404;7.232;2022-11-12T10:27:41;12.60;20.80
2973;DHT22;1496;51.404;7.232;2022-11-12T10:30:26;12.60;21.50
2973;DHT22;1496;51.404;7.232;2022-11-12T10:33:14;12.60;28.90
2973;DHT22;1496;51.404;7.232;2022-11-12T10:39:03;12.80;20.20
2973;DHT22;1496;51.404;7.232;2022-11-12T10:42:05;12.90;19.30
2973;DHT22;1496;51.404;7.232;2022-11-12T10:44:49;13.00;18.00
2973;DHT22;1496;51.404;7.232;2022-11-12T10:47:37;13.10;18.90
2973;DHT22;1496;51.404;7.232;2022-11-12T10:50:34;13.30;17.80
2973;DHT22;1496;51.404;7.232;2022-11-12T10:53:36;13.40;18.10
2973;DHT22;1496;51.404;7.232;2022-11-12T10:56:31;13.50;17.90
2973;DHT22;1496;51.404;7.232;2022-11-12T10:59:20;13.60;17.90
2973;DHT22;1496;51.404;7.232;2022-11-12T11:02:15;13.60;17.40
2973;DHT22;1496;51.404;7.232;2022-11-12T11:08:09;13.60;13.40
2973;DHT22;1496;51.404;7.232;2022-11-12T11:11:10;13.60;12.70
2973;DHT22;1496;51.404;7.232;2022-11-12T11:14:25;13.60;12.80
2973;DHT22;1496;51.404;7.232;2022-11-12T11:17:16;13.60;14.90
2973;DHT22;1496;51.404;7.232;2022-11-12T11:20:11;13.60;18.10
2973;DHT22;1496;51.404;7.232;2022-11-12T11:23:09;13.60;18.00
2973;DHT22;1496;51.404;7.232;2022-11-12T11:26:01;13.70;17.80
2973;DHT22;1496;51.404;7.232;2022-11-12T11:29:13;13.70;17.40
2973;DHT22;1496;51.404;7.232;2022-11-12T11:32:10;13.90;17.60
2973;DHT22;1496;51.404;7.232;2022-11-12T11:35:19;13.90;16.20
2973;DHT22;1496;51.404;7.232;2022-11-12T11:44:31;13.90;13.30
2973;DHT22;1496;51.404;7.232;2022-11-12T11:47:36;14.10;12.70
2973;DHT22;1496;51.404;7.232;2022-11-12T11:50:38;14.00;12.80
2973;DHT22;1496;51.404;7.232;2022-11-12T11:53:40;14.10;13.50
2973;DHT22;1496;51.404;7.232;2022-11-12T11:56:31;14.20;12.90
2973;DHT22;1496;51.404;7.232;2022-11-12T12:05:31;14.30;11.10
2973;DHT22;1496;51.404;7.232;2022-11-12T12:11:30;14.30;9.70
2973;DHT22;1496;51.404;7.232;2022-11-12T12:18:22;14.50;4.90
2973;DHT22;1496;51.404;7.232;2022-11-12T12:21:15;14.60;4.80
2973;DHT22;1496;51.404;7.232;2022-11-12T12:24:22;14.70;4.80
2973;DHT22;1496;51.404;7.232;2022-11-12T12:27:19;14.70;4.60
2973;DHT22;1496;51.404;7.232;2022-11-12T12:30:17;14.80;3.70
2973;DHT22;1496;51.404;7.232;2022-11-12T12:36:13;15.00;1.60
2973;DHT22;1496;51.404;7.232;2022-11-12T12:39:18;15.20;1.00
2973;DHT22;1496;51.404;7.232;2022-11-12T12:42:16;15.30;1.00
2973;DHT22;1496;51.404;7.232;2022-11-12T12:45:44;15.40;1.00
2973;DHT22;1496;51.404;7.232;2022-11-12T12:48:33;15.40;1.00
2973;DHT22;1496;51.404;7.232;2022-11-12T12:51:18;15.50;1.00
2973;DHT22;1496;51.404;7.232;2022-11-12T12:54:02;15.50;1.00
2973;DHT22;1496;51.404;7.232;2022-11-12T12:56:47;15.60;1.00
2973;DHT22;1496;51.404;7.232;2022-11-12T12:59:31;15.70;1.00
2973;DHT22;1496;51.404;7.232;2022-11-12T13:02:23;15.70;1.00
2973;DHT22;1496;51.404;7.232;2022-11-12T13:05:29;15.70;1.00
2973;DHT22;1496;51.404;7.232;2022-11-12T13:08:23;15.70;1.00
2973;DHT22;1496;51.404;7.232;2022-11-12T13:11:09;15.70;1.00
2973;DHT22;1496;51.404;7.232;2022-11-12T13:13:53;15.80;1.00
2973;DHT22;1496;51.404;7.232;2022-11-12T13:16:55;15.80;1.00
2973;DHT22;1496;51.404;7.232;2022-11-12T13:25:28;15.70;1.00
2973;DHT22;1496;51.404;7.232;2022-11-12T13:28:12;15.80;1.00
2973;DHT22;1496;51.404;7.232;2022-11-12T13:30:59;15.80;1.00
2973;DHT22;1496;51.404;7.232;2022-11-12T13:33:43;15.80;1.00
2973;DHT22;1496;51.404;7.232;2022-11-12T13:36:28;15.70;1.00
2973;DHT22;1496;51.404;7.232;2022-11-12T13:39:18;15.70;1.00
2973;DHT22;1496;51.404;7.232;2022-11-12T13:42:15;15.80;1.00
2973;DHT22;1496;51.404;7.232;2022-11-12T13:45:22;15.70;1.00
2973;DHT22;1496;51.404;7.232;2022-11-12T13:48:22;15.80;1.00
2973;DHT22;1496;51.404;7.232;2022-11-12T13:54:31;15.60;1.00
2973;DHT22;1496;51.404;7.232;2022-11-12T14:00:21;15.70;1.00
2973;DHT22;1496;51.404;7.232;2022-11-12T14:03:07;15.70;1.00
2973;DHT22;1496;51.404;7.232;2022-11-12T14:05:52;15.60;1.00
2973;DHT22;1496;51.404;7.232;2022-11-12T14:15:15;15.70;1.00
2973;DHT22;1496;51.404;7.232;2022-11-12T14:18:14;15.70;1.00
2973;DHT22;1496;51.404;7.232;2022-11-12T14:21:05;15.80;1.00
2973;DHT22;1496;51.404;7.232;2022-11-12T14:23:51;15.80;1.00
2973;DHT22;1496;51.404;7.232;2022-11-12T14:26:40;15.80;1.00
2973;DHT22;1496;51.404;7.232;2022-11-12T14:29:25;15.70;1.00
2973;DHT22;1496;51.404;7.232;2022-11-12T14:32:16;15.70;1.00
2973;DHT22;1496;51.404;7.232;2022-11-12T14:35:29;15.70;1.00
2973;DHT22;1496;51.404;7.232;2022-11-12T14:38:18;15.70;1.00
2973;DHT22;1496;51.404;7.232;2022-11-12T14:41:15;15.60;1.00
2973;DHT22;1496;51.404;7.232;2022-11-12T14:44:03;15.60;1.00
2973;DHT22;1496;51.404;7.232;2022-11-12T14:46:50;15.60;1.00
2973;DHT22;1496;51.404;7.232;2022-11-12T14:49:42;15.50;1.00
2973;DHT22;1496;51.404;7.232;2022-11-12T14:52:31;15.60;1.00
2973;DHT22;1496;51.404;7.232;2022-11-12T14:55:22;15.60;1.00
2973;DHT22;1496;51.404;7.232;2022-11-12T14:58:13;15.50;1.00
2973;DHT22;1496;51.404;7.232;2022-11-12T15:00:58;15.50;1.00
2973;DHT22;1496;51.404;7.232;2022-11-12T15:04:17;15.40;1.00
2973;DHT22;1496;51.404;7.232;2022-11-12T15:07:02;15.40;1.00
2973;DHT22;1496;51.404;7.232;2022-11-12T15:09:47;15.30;1.00
2973;DHT22;1496;51.404;7.232;2022-11-12T15:12:32;15.40;1.00
2973;DHT22;1496;51.404;7.232;2022-11-12T15:15:19;15.30;1.00
2973;DHT22;1496;51.404;7.232;2022-11-12T15:18:18;15.20;1.00
2973;DHT22;1496;51.404;7.232;2022-11-12T15:26:54;14.90;1.00
2973;DHT22;1496;51.404;7.232;2022-11-12T15:29:39;14.80;1.00
2973;DHT22;1496;51.404;7.232;2022-11-12T15:38:21;14.60;1.00
2973;DHT22;1496;51.404;7.232;2022-11-12T15:41:20;14.50;1.00
2973;DHT22;1496;51.404;7.232;2022-11-12T15:44:08;14.40;1.00
2973;DHT22;1496;51.404;7.232;2022-11-12T15:46:53;14.40;1.00
2973;DHT22;1496;51.404;7.232;2022-11-12T15:49:46;14.30;1.00
2973;DHT22;1496;51.404;7.232;2022-11-12T15:52:31;14.30;1.00
2973;DHT22;1496;51.404;7.232;2022-11-12T15:55:16;14.20;1.00
2973;DHT22;1496;51.404;7.232;2022-11-12T15:58:01;14.20;1.00
2973;DHT22;1496;51.404;7.232;2022-11-12T16:00:46;14.10;1.00
2973;DHT22;1496;51.404;7.232;2022-11-12T16:03:31;14.10;1.00
2973;DHT22;1496;51.404;7.232;2022-11-12T16:06:15;14.10;1.00
2973;DHT22;1496;51.404;7.232;2022-11-12T16:08:59;14.10;1.00
2973;DHT22;1496;51.404;7.232;2022-11-12T16:11:44;14.00;1.00
2973;DHT22;1496;51.404;7.232;2022-11-12T16:14:29;13.90;1.00
2973;DHT22;1496;51.404;7.232;2022-11-12T16:17:15;13.80;1.00
2973;DHT22;1496;51.404;7.232;2022-11-12T16:20:00;13.80;1.00
2973;DHT22;1496;51.404;7.232;2022-11-12T16:22:44;13.80;1.00
2973;DHT22;1496;51.404;7.232;2022-11-12T16:25:32;13.70;1.00
2973;DHT22;1496;51.404;7.232;2022-11-12T16:28:18;13.70;1.00
2973;DHT22;1496;51.404;7.232;2022-11-12T16:31:02;13.60;1.00
2973;DHT22;1496;51.404;7.232;2022-11-12T16:33:46;13.60;1.00
2973;DHT22;1496;51.404;7.232;2022-11-12T16:36:30;13.50;1.00
2973;DHT22;1496;51.404;7.232;2022-11-12T16:39:15;13.50;1.00
2973;DHT22;1496;51.404;7.232;2022-11-12T16:42:01;13.40;1.00
2973;DHT22;1496;51.404;7.232;2022-11-12T16:44:48;13.40;1.00
2973;DHT22;1496;51.404;7.232;2022-11-12T16:47:33;13.30;1.00
2973;DHT22;1496;51.404;7.232;2022-11-12T16:50:19;13.30;1.00
2973;DHT22;1496;51.404;7.232;2022-11-12T16:53:04;13.30;1.00
2973;DHT22;1496;51.404;7.232;2022-11-12T16:55:49;13.30;1.00
2973;DHT22;1496;51.404;7.232;2022-11-12T16:58:33;13.20;1.00
2973;DHT22;1496;51.404;7.232;2022-11-12T17:01:31;13.20;1.00
2973;DHT22;1496;51.404;7.232;2022-11-12T17:04:15;13.20;1.00
2973;DHT22;1496;51.404;7.232;2022-11-12T17:06:59;13.10;1.00
2973;DHT22;1496;51.404;7.232;2022-11-12T17:09:44;13.00;1.00
2973;DHT22;1496;51.404;7.232;2022-11-12T17:12:28;12.90;1.00
2973;DHT22;1496;51.404;7.232;2022-11-12T17:15:12;12.90;1.00
2973;DHT22;1496;51.404;7.232;2022-11-12T17:17:56;12.80;1.00
2973;DHT22;1496;51.404;7.232;2022-11-12T17:20:41;12.80;1.00
2973;DHT22;1496;51.404;7.232;2022-11-12T17:23:25;12.80;2.00
2973;DHT22;1496;51.404;7.232;2022-11-12T17:26:16;12.70;1.00
2973;DHT22;1496;51.404;7.232;2022-11-12T17:29:10;12.60;1.00
2973;DHT22;1496;51.404;7.232;2022-11-12T17:31:54;12.60;1.00
2973;DHT22;1496;51.404;7.232;2022-11-12T17:34:38;12.50;1.00
2973;DHT22;1496;51.404;7.232;2022-11-12T17:37:22;12.50;1.00
2973;DHT22;1496;51.404;7.232;2022-11-12T17:40:08;12.50;1.00
2973;DHT22;1496;51.404;7.232;2022-11-12T17:42:52;12.40;1.00
2973;DHT22;1496;51.404;7.232;2022-11-12T17:45:37;12.40;1.30
2973;DHT22;1496;51.404;7.232;2022-11-12T17:48:22;12.30;1.60
2973;DHT22;1496;51.404;7.232;2022-11-12T17:51:12;12.30;10.30
2973;DHT22;1496;51.404;7.232;2022-11-12T17:53:57;12.20;1.60
2973;DHT22;1496;51.404;7.232;2022-11-12T17:56:42;12.10;1.90
2973;DHT22;1496;51.404;7.232;2022-11-12T17:59:26;11.90;1.90
2973;DHT22;1496;51.404;7.232;2022-11-12T18:02:11;11.90;2.20
2973;DHT22;1496;51.404;7.232;2022-11-12T18:04:59;11.90;1.00
2973;DHT22;1496;51.404;7.232;2022-11-12T18:07:43;11.80;7.00
2973;DHT22;1496;51.404;7.232;2022-11-12T18:10:28;11.70;1.00
2973;DHT22;1496;51.404;7.232;2022-11-12T18:13:12;11.60;1.00
2973;DHT22;1496;51.404;7.232;2022-11-12T18:15:56;11.60;1.00
2973;DHT22;1496;51.404;7.232;2022-11-12T18:18:40;11.50;1.00
2973;DHT22;1496;51.404;7.232;2022-11-12T18:21:25;11.50;1.90
2973;DHT22;1496;51.404;7.232;2022-11-12T18:24:14;11.40;2.80
2973;DHT22;1496;51.404;7.232;2022-11-12T18:26:59;11.30;4.20
2973;DHT22;1496;51.404;7.232;2022-11-12T18:29:43;11.20;5.10
2973;DHT22;1496;51.404;7.232;2022-11-12T18:32:29;11.20;6.00
2973;DHT22;1496;51.404;7.232;2022-11-12T18:35:16;11.10;15.30
2973;DHT22;1496;51.404;7.232;2022-11-12T18:38:01;11.10;8.30
2973;DHT22;1496;51.404;7.232;2022-11-12T18:40:45;11.10;8.30
2973;DHT22;1496;51.404;7.232;2022-11-12T18:43:30;11.20;8.40
2973;DHT22;1496;51.404;7.232;2022-11-12T18:46:18;11.20;8.30
2973;DHT22;1496;51.404;7.232;2022-11-12T18:49:05;11.20;6.50
2973;DHT22;1496;51.404;7.232;2022-11-12T18:51:50;11.20;4.90
2973;DHT22;1496;51.404;7.232;2022-11-12T18:54:34;11.30;4.50
2973;DHT22;1496;51.404;7.232;2022-11-12T18:57:19;11.30;5.00
2973;DHT22;1496;51.404;7.232;2022-11-12T19:00:04;11.30;5.40
2973;DHT22;1496;51.404;7.232;2022-11-12T19:02:48;11.30;5.20
2973;DHT22;1496;51.404;7.232;2022-11-12T19:05:32;11.20;6.30
2973;DHT22;1496;51.404;7.232;2022-11-12T19:08:19;11.20;6.60
2973;DHT22;1496;51.404;7.232;2022-11-12T19:11:07;11.20;7.50
2973;DHT22;1496;51.404;7.232;2022-11-12T19:13:53;11.10;7.00
2973;DHT22;1496;51.404;7.232;2022-11-12T19:16:39;11.10;8.80
2973;DHT22;1496;51.404;7.232;2022-11-12T19:19:25;11.10;8.70
2973;DHT22;1496;51.404;7.232;2022-11-12T19:22:10;11.10;8.80
2973;DHT22;1496;51.404;7.232;2022-11-12T19:24:54;11.10;8.20
2973;DHT22;1496;51.404;7.232;2022-11-12T19:27:38;11.00;15.40
2973;DHT22;1496;51.404;7.232;2022-11-12T19:30:22;11.00;8.20
2973;DHT22;1496;51.404;7.232;2022-11-12T19:33:06;10.90;8.20
2973;DHT22;1496;51.404;7.232;2022-11-12T19:35:51;10.80;8.60
2973;DHT22;1496;51.404;7.232;2022-11-12T19:38:35;10.80;16.30
2973;DHT22;1496;51.404;7.232;2022-11-12T19:41:19;10.80;8.50